sensor_id;sensor_type;location;lat;lon;timestamp;temperature;humidity
2260;DHT22;333;48.800;9.530;2023-07-31T00:01:19;14.30;99.60
2260;DHT22;333;48.800;9.530;2023-07-31T00:03:47;14.30;99.60
2260;DHT22;333;48.800;9.530;2023-07-31T00:06:14;14.20;99.60
2260;DHT22;333;48.800;9.530;2023-07-31T00:08:41;14.20;99.60
2260;DHT22;333;48.800;9.530;2023-07-31T00:11:08;14.20;99.60
2260;DHT22;333;48.800;9.530;2023-07-31T00:13:35;14.20;99.60
2260;DHT22;333;48.800;9.530;2023-07-31T00:16:02;14.10;99.60
2260;DHT22;333;48.800;9.530;2023-07-31T00:18:29;14.10;99.60
2260;DHT22;333;48.800;9.530;2023-07-31T00:20:57;14.10;99.60
2260;DHT22;333;48.800;9.530;2023-07-31T00:23:24;14.00;99.60
2260;DHT22;333;48.800;9.530;2023-07-31T00:25:51;13.90;99.60
2260;DHT22;333;48.800;9.530;2023-07-31T00:28:18;13.90;99.60
2260;DHT22;333;48.800;9.530;2023-07-31T00:30:45;13.80;99.60
2260;DHT22;333;48.800;9.530;2023-07-31T00:33:12;13.90;99.60
2260;DHT22;333;48.800;9.530;2023-07-31T00:35:39;13.80;99.60
2260;DHT22;333;48.800;9.530;2023-07-31T00:38:07;13.70;99.60
2260;DHT22;333;48.800;9.530;2023-07-31T00:40:35;13.80;99.60
2260;DHT22;333;48.800;9.530;2023-07-31T00:43:02;13.80;99.60
2260;DHT22;333;48.800;9.530;2023-07-31T00:45:30;13.80;99.60
2260;DHT22;333;48.800;9.530;2023-07-31T00:47:58;13.80;99.60
2260;DHT22;333;48.800;9.530;2023-07-31T00:50:25;13.70;99.60
2260;DHT22;333;48.800;9.530;2023-07-31T00:52:52;13.60;99.60
2260;DHT22;333;48.800;9.530;2023-07-31T00:55:20;13.50;99.60
2260;DHT22;333;48.800;9.530;2023-07-31T00:57:48;13.50;99.60
2260;DHT22;333;48.800;9.530;2023-07-31T01:00:16;13.50;99.60
2260;DHT22;333;48.800;9.530;2023-07-31T01:02:43;13.40;99.60
2260;DHT22;333;48.800;9.530;2023-07-31T01:05:10;13.30;99.60
2260;DHT22;333;48.800;9.530;2023-07-31T01:07:42;13.30;99.60
2260;DHT22;333;48.800;9.530;2023-07-31T01:10:16;13.30;99.60
2260;DHT22;333;48.800;9.530;2023-07-31T01:12:45;13.30;99.60
2260;DHT22;333;48.800;9.530;2023-07-31T01:15:13;13.30;99.60
2260;DHT22;333;48.800;9.530;2023-07-31T01:17:41;13.40;99.60
2260;DHT22;333;48.800;9.530;2023-07-31T01:20:11;13.40;99.60
2260;DHT22;333;48.800;9.530;2023-07-31T01:22:54;13.40;99.60
2260;DHT22;333;48.800;9.530;2023-07-31T01:25:51;13.40;99.60
2260;DHT22;333;48.800;9.530;2023-07-31T01:28:20;13.40;99.60
2260;DHT22;333;48.800;9.530;2023-07-31T01:30:50;13.40;99.60
2260;DHT22;333;48.800;9.530;2023-07-31T01:33:17;13.30;99.60
2260;DHT22;333;48.800;9.530;2023-07-31T01:35:47;13.20;99.60
2260;DHT22;333;48.800;9.530;2023-07-31T01:38:15;13.30;99.60
2260;DHT22;333;48.800;9.530;2023-07-31T01:40:42;13.20;99.60
2260;DHT22;333;48.800;9.530;2023-07-31T01:43:10;13.20;99.60
2260;DHT22;333;48.800;9.530;2023-07-31T01:45:37;13.20;99.60
2260;DHT22;333;48.800;9.530;2023-07-31T01:48:04;13.10;99.60
2260;DHT22;333;48.800;9.530;2023-07-31T01:50:31;13.20;99.60
2260;DHT22;333;48.800;9.530;2023-07-31T01:52:58;13.10;99.60
2260;DHT22;333;48.800;9.530;2023-07-31T01:55:25;13.10;99.60
2260;DHT22;333;48.800;9.530;2023-07-31T01:57:53;13.10;99.60
2260;DHT22;333;48.800;9.530;2023-07-31T02:00:21;13.10;99.60
2260;DHT22;333;48.800;9.530;2023-07-31T02:02:48;13.10;99.60
2260;DHT22;333;48.800;9.530;2023-07-31T02:05:15;13.10;99.60
2260;DHT22;333;48.800;9.530;2023-07-31T02:07:42;13.10;99.60
2260;DHT22;333;48.800;9.530;2023-07-31T02:10:09;13.10;99.60
2260;DHT22;333;48.800;9.530;2023-07-31T02:12:36;13.20;99.60
2260;DHT22;333;48.800;9.530;2023-07-31T02:15:04;13.10;99.60
2260;DHT22;333;48.800;9.530;2023-07-31T02:17:32;13.10;99.60
2260;DHT22;333;48.800;9.530;2023-07-31T02:19:59;13.00;99.60
2260;DHT22;333;48.800;9.530;2023-07-31T02:22:26;12.90;99.60
2260;DHT22;333;48.800;9.530;2023-07-31T02:24:53;12.90;99.60
2260;DHT22;333;48.800;9.530;2023-07-31T02:27:20;12.90;99.60
2260;DHT22;333;48.800;9.530;2023-07-31T02:29:49;12.90;99.60
2260;DHT22;333;48.800;9.530;2023-07-31T02:32:16;12.90;99.60
2260;DHT22;333;48.800;9.530;2023-07-31T02:34:44;12.80;99.60
2260;DHT22;333;48.800;9.530;2023-07-31T02:37:11;12.70;99.60
2260;DHT22;333;48.800;9.530;2023-07-31T02:39:38;12.70;99.60
2260;DHT22;333;48.800;9.530;2023-07-31T02:42:05;12.70;99.60
2260;DHT22;333;48.800;9.530;2023-07-31T02:44:32;12.70;99.60
2260;DHT22;333;48.800;9.530;2023-07-31T02:46:59;12.70;99.60
2260;DHT22;333;48.800;9.530;2023-07-31T02:49:26;12.70;99.60
2260;DHT22;333;48.800;9.530;2023-07-31T02:51:54;12.60;99.60
2260;DHT22;333;48.800;9.530;2023-07-31T02:54:21;12.60;99.60
2260;DHT22;333;48.800;9.530;2023-07-31T02:56:48;12.50;99.60
2260;DHT22;333;48.800;9.530;2023-07-31T02:59:15;12.60;99.60
2260;DHT22;333;48.800;9.530;2023-07-31T03:01:42;12.50;99.60
2260;DHT22;333;48.800;9.530;2023-07-31T03:04:08;12.60;99.60
2260;DHT22;333;48.800;9.530;2023-07-31T03:06:35;12.50;99.60
2260;DHT22;333;48.800;9.530;2023-07-31T03:09:04;12.40;99.60
2260;DHT22;333;48.800;9.530;2023-07-31T03:11:30;12.40;99.60
2260;DHT22;333;48.800;9.530;2023-07-31T03:13:57;12.50;99.60
2260;DHT22;333;48.800;9.530;2023-07-31T03:16:24;12.40;99.60
2260;DHT22;333;48.800;9.530;2023-07-31T03:18:51;12.40;99.60
2260;DHT22;333;48.800;9.530;2023-07-31T03:21:18;12.30;99.60
2260;DHT22;333;48.800;9.530;2023-07-31T03:23:45;12.30;99.60
2260;DHT22;333;48.800;9.530;2023-07-31T03:26:13;12.30;99.60
2260;DHT22;333;48.800;9.530;2023-07-31T03:28:40;12.30;99.60
2260;DHT22;333;48.800;9.530;2023-07-31T03:31:07;12.30;99.60
2260;DHT22;333;48.800;9.530;2023-07-31T03:33:34;12.20;99.60
2260;DHT22;333;48.800;9.530;2023-07-31T03:36:01;12.20;99.60
2260;DHT22;333;48.800;9.530;2023-07-31T03:38:28;12.30;99.60
2260;DHT22;333;48.800;9.530;2023-07-31T03:40:55;12.30;99.60
2260;DHT22;333;48.800;9.530;2023-07-31T03:43:25;12.30;99.60
2260;DHT22;333;48.800;9.530;2023-07-31T03:45:52;12.30;99.60
2260;DHT22;333;48.800;9.530;2023-07-31T03:48:19;12.30;99.60
2260;DHT22;333;48.800;9.530;2023-07-31T03:50:46;12.40;99.60
2260;DHT22;333;48.800;9.530;2023-07-31T03:53:13;12.50;99.60
2260;DHT22;333;48.800;9.530;2023-07-31T03:55:40;12.40;99.60
2260;DHT22;333;48.800;9.530;2023-07-31T03:58:07;12.30;99.60
2260;DHT22;333;48.800;9.530;2023-07-31T04:00:35;12.30;99.60
2260;DHT22;333;48.800;9.530;2023-07-31T04:03:02;12.50;99.60
2260;DHT22;333;48.800;9.530;2023-07-31T04:05:31;12.40;99.60
2260;DHT22;333;48.800;9.530;2023-07-31T04:07:58;12.50;99.60
2260;DHT22;333;48.800;9.530;2023-07-31T04:10:25;12.30;99.60
2260;DHT22;333;48.800;9.530;2023-07-31T04:12:52;12.30;99.60
2260;DHT22;333;48.800;9.530;2023-07-31T04:15:19;12.50;99.60
2260;DHT22;333;48.800;9.530;2023-07-31T04:17:47;12.60;99.60
2260;DHT22;333;48.800;9.530;2023-07-31T04:20:14;12.60;99.60
2260;DHT22;333;48.800;9.530;2023-07-31T04:22:41;12.70;99.60
2260;DHT22;333;48.800;9.530;2023-07-31T04:25:08;12.70;99.60
2260;DHT22;333;48.800;9.530;2023-07-31T04:27:35;12.80;99.60
2260;DHT22;333;48.800;9.530;2023-07-31T04:30:02;12.90;99.60
2260;DHT22;333;48.800;9.530;2023-07-31T04:32:29;13.10;99.60
2260;DHT22;333;48.800;9.530;2023-07-31T04:34:58;13.10;99.60
2260;DHT22;333;48.800;9.530;2023-07-31T04:37:24;13.10;99.60
2260;DHT22;333;48.800;9.530;2023-07-31T04:39:51;13.20;99.60
2260;DHT22;333;48.800;9.530;2023-07-31T04:42:18;13.20;99.60
2260;DHT22;333;48.800;9.530;2023-07-31T04:44:46;13.30;99.60
2260;DHT22;333;48.800;9.530;2023-07-31T04:47:13;13.40;99.60
2260;DHT22;333;48.800;9.530;2023-07-31T04:49:40;13.50;99.60
2260;DHT22;333;48.800;9.530;2023-07-31T04:52:08;13.60;99.60
2260;DHT22;333;48.800;9.530;2023-07-31T04:54:35;13.60;99.60
2260;DHT22;333;48.800;9.530;2023-07-31T04:57:02;13.80;99.60
2260;DHT22;333;48.800;9.530;2023-07-31T04:59:29;13.80;99.60
2260;DHT22;333;48.800;9.530;2023-07-31T05:01:57;14.00;99.60
2260;DHT22;333;48.800;9.530;2023-07-31T05:04:24;14.00;99.60
2260;DHT22;333;48.800;9.530;2023-07-31T05:06:50;14.20;99.60
2260;DHT22;333;48.800;9.530;2023-07-31T05:09:19;14.30;99.60
2260;DHT22;333;48.800;9.530;2023-07-31T05:11:46;14.50;99.60
2260;DHT22;333;48.800;9.530;2023-07-31T05:14:13;14.70;99.60
2260;DHT22;333;48.800;9.530;2023-07-31T05:16:41;14.80;99.60
2260;DHT22;333;48.800;9.530;2023-07-31T05:19:08;15.00;99.60
2260;DHT22;333;48.800;9.530;2023-07-31T05:21:35;15.00;99.60
2260;DHT22;333;48.800;9.530;2023-07-31T05:24:02;15.10;99.60
2260;DHT22;333;48.800;9.530;2023-07-31T05:26:30;15.20;99.60
2260;DHT22;333;48.800;9.530;2023-07-31T05:28:57;15.30;99.60
2260;DHT22;333;48.800;9.530;2023-07-31T05:31:24;15.50;99.60
2260;DHT22;333;48.800;9.530;2023-07-31T05:33:51;15.50;99.60
2260;DHT22;333;48.800;9.530;2023-07-31T05:36:18;15.50;99.60
2260;DHT22;333;48.800;9.530;2023-07-31T05:38:45;15.60;99.60
2260;DHT22;333;48.800;9.530;2023-07-31T05:41:12;15.70;99.60
2260;DHT22;333;48.800;9.530;2023-07-31T05:43:41;15.50;99.60
2260;DHT22;333;48.800;9.530;2023-07-31T05:46:09;15.50;99.60
2260;DHT22;333;48.800;9.530;2023-07-31T05:48:37;15.60;99.60
2260;DHT22;333;48.800;9.530;2023-07-31T05:51:04;15.60;99.60
2260;DHT22;333;48.800;9.530;2023-07-31T05:53:31;15.60;99.60
2260;DHT22;333;48.800;9.530;2023-07-31T05:55:58;15.70;99.60
2260;DHT22;333;48.800;9.530;2023-07-31T05:58:25;15.70;99.60
2260;DHT22;333;48.800;9.530;2023-07-31T06:00:53;15.80;99.60
2260;DHT22;333;48.800;9.530;2023-07-31T06:03:20;15.80;99.60
2260;DHT22;333;48.800;9.530;2023-07-31T06:05:47;16.10;99.60
2260;DHT22;333;48.800;9.530;2023-07-31T06:08:14;16.40;99.60
2260;DHT22;333;48.800;9.530;2023-07-31T06:10:41;16.80;99.60
2260;DHT22;333;48.800;9.530;2023-07-31T06:13:07;17.30;99.60
2260;DHT22;333;48.800;9.530;2023-07-31T06:15:34;17.60;99.60
2260;DHT22;333;48.800;9.530;2023-07-31T06:18:03;17.70;99.60
2260;DHT22;333;48.800;9.530;2023-07-31T06:20:33;17.70;99.60
2260;DHT22;333;48.800;9.530;2023-07-31T06:23:00;17.90;99.60
2260;DHT22;333;48.800;9.530;2023-07-31T06:25:27;18.10;99.60
2260;DHT22;333;48.800;9.530;2023-07-31T06:27:54;18.20;99.60
2260;DHT22;333;48.800;9.530;2023-07-31T06:30:21;18.20;99.60
2260;DHT22;333;48.800;9.530;2023-07-31T06:32:48;18.40;99.60
2260;DHT22;333;48.800;9.530;2023-07-31T06:35:16;18.60;99.60
2260;DHT22;333;48.800;9.530;2023-07-31T06:37:43;18.60;99.60
2260;DHT22;333;48.800;9.530;2023-07-31T06:40:11;18.80;99.60
2260;DHT22;333;48.800;9.530;2023-07-31T06:42:38;19.10;99.60
2260;DHT22;333;48.800;9.530;2023-07-31T06:45:05;19.20;99.60
2260;DHT22;333;48.800;9.530;2023-07-31T06:47:33;19.30;99.60
2260;DHT22;333;48.800;9.530;2023-07-31T06:50:00;19.40;99.60
2260;DHT22;333;48.800;9.530;2023-07-31T06:52:28;19.40;99.60
2260;DHT22;333;48.800;9.530;2023-07-31T06:55:02;19.40;99.60
2260;DHT22;333;48.800;9.530;2023-07-31T06:57:30;19.40;99.60
2260;DHT22;333;48.800;9.530;2023-07-31T06:59:57;19.60;99.60
2260;DHT22;333;48.800;9.530;2023-07-31T07:02:24;19.70;99.60
2260;DHT22;333;48.800;9.530;2023-07-31T07:04:51;19.80;99.60
2260;DHT22;333;48.800;9.530;2023-07-31T07:07:18;19.80;99.60
2260;DHT22;333;48.800;9.530;2023-07-31T07:09:46;19.80;99.60
2260;DHT22;333;48.800;9.530;2023-07-31T07:12:13;19.90;99.60
2260;DHT22;333;48.800;9.530;2023-07-31T07:14:40;19.90;99.60
2260;DHT22;333;48.800;9.530;2023-07-31T07:17:07;19.90;99.60
2260;DHT22;333;48.800;9.530;2023-07-31T07:19:33;20.10;99.60
2260;DHT22;333;48.800;9.530;2023-07-31T07:22:00;20.20;99.60
2260;DHT22;333;48.800;9.530;2023-07-31T07:24:28;20.40;99.60
2260;DHT22;333;48.800;9.530;2023-07-31T07:26:56;20.50;99.60
2260;DHT22;333;48.800;9.530;2023-07-31T07:29:23;20.60;99.60
2260;DHT22;333;48.800;9.530;2023-07-31T07:31:50;20.60;99.60
2260;DHT22;333;48.800;9.530;2023-07-31T07:34:16;20.60;99.60
2260;DHT22;333;48.800;9.530;2023-07-31T07:36:43;20.70;99.60
2260;DHT22;333;48.800;9.530;2023-07-31T07:39:11;21.00;99.60
2260;DHT22;333;48.800;9.530;2023-07-31T07:41:38;21.00;99.60
2260;DHT22;333;48.800;9.530;2023-07-31T07:44:07;21.10;99.60
2260;DHT22;333;48.800;9.530;2023-07-31T07:46:34;21.00;99.60
2260;DHT22;333;48.800;9.530;2023-07-31T07:49:01;21.00;99.60
2260;DHT22;333;48.800;9.530;2023-07-31T07:51:28;20.90;99.60
2260;DHT22;333;48.800;9.530;2023-07-31T07:53:56;20.70;99.60
2260;DHT22;333;48.800;9.530;2023-07-31T07:56:23;20.60;99.60
2260;DHT22;333;48.800;9.530;2023-07-31T07:58:50;20.50;99.60
2260;DHT22;333;48.800;9.530;2023-07-31T08:01:19;20.50;99.60
2260;DHT22;333;48.800;9.530;2023-07-31T08:03:46;20.50;99.60
2260;DHT22;333;48.800;9.530;2023-07-31T08:06:14;20.80;99.60
2260;DHT22;333;48.800;9.530;2023-07-31T08:08:41;21.10;99.60
2260;DHT22;333;48.800;9.530;2023-07-31T08:11:08;21.30;99.60
2260;DHT22;333;48.800;9.530;2023-07-31T08:13:35;21.40;99.60
2260;DHT22;333;48.800;9.530;2023-07-31T08:16:02;21.20;99.60
2260;DHT22;333;48.800;9.530;2023-07-31T08:18:31;21.20;99.60
2260;DHT22;333;48.800;9.530;2023-07-31T08:20:58;21.10;99.60
2260;DHT22;333;48.800;9.530;2023-07-31T08:23:28;21.10;99.60
2260;DHT22;333;48.800;9.530;2023-07-31T08:25:55;21.10;99.60
2260;DHT22;333;48.800;9.530;2023-07-31T08:28:22;21.10;99.60
2260;DHT22;333;48.800;9.530;2023-07-31T08:30:49;21.00;99.50
2260;DHT22;333;48.800;9.530;2023-07-31T08:33:16;20.90;99.60
2260;DHT22;333;48.800;9.530;2023-07-31T08:35:44;20.90;99.60
2260;DHT22;333;48.800;9.530;2023-07-31T08:38:12;20.90;99.60
2260;DHT22;333;48.800;9.530;2023-07-31T08:40:39;21.20;99.60
2260;DHT22;333;48.800;9.530;2023-07-31T08:43:08;21.30;99.60
2260;DHT22;333;48.800;9.530;2023-07-31T08:45:35;21.40;99.10
2260;DHT22;333;48.800;9.530;2023-07-31T08:48:03;21.60;99.20
2260;DHT22;333;48.800;9.530;2023-07-31T08:50:30;21.80;98.90
2260;DHT22;333;48.800;9.530;2023-07-31T08:52:59;21.90;97.70
2260;DHT22;333;48.800;9.530;2023-07-31T08:55:27;21.90;97.30
2260;DHT22;333;48.800;9.530;2023-07-31T08:57:56;21.80;97.90
2260;DHT22;333;48.800;9.530;2023-07-31T09:00:23;21.90;97.70
2260;DHT22;333;48.800;9.530;2023-07-31T09:02:56;21.90;96.80
2260;DHT22;333;48.800;9.530;2023-07-31T09:05:25;21.80;96.40
2260;DHT22;333;48.800;9.530;2023-07-31T09:07:53;21.80;97.00
2260;DHT22;333;48.800;9.530;2023-07-31T09:10:23;22.10;97.20
2260;DHT22;333;48.800;9.530;2023-07-31T09:12:51;22.40;96.30
2260;DHT22;333;48.800;9.530;2023-07-31T09:15:19;22.30;94.70
2260;DHT22;333;48.800;9.530;2023-07-31T09:17:46;22.30;94.60
2260;DHT22;333;48.800;9.530;2023-07-31T09:20:14;22.20;93.60
2260;DHT22;333;48.800;9.530;2023-07-31T09:22:42;22.40;95.20
2260;DHT22;333;48.800;9.530;2023-07-31T09:25:20;22.70;93.50
2260;DHT22;333;48.800;9.530;2023-07-31T09:27:49;22.90;95.60
2260;DHT22;333;48.800;9.530;2023-07-31T09:30:17;23.20;93.40
2260;DHT22;333;48.800;9.530;2023-07-31T09:32:45;23.10;92.50
2260;DHT22;333;48.800;9.530;2023-07-31T09:35:20;23.10;93.70
2260;DHT22;333;48.800;9.530;2023-07-31T09:37:51;23.40;92.30
2260;DHT22;333;48.800;9.530;2023-07-31T09:40:28;23.60;92.40
2260;DHT22;333;48.800;9.530;2023-07-31T09:43:01;23.70;91.40
2260;DHT22;333;48.800;9.530;2023-07-31T09:45:29;23.50;91.70
2260;DHT22;333;48.800;9.530;2023-07-31T09:47:56;23.30;91.70
2260;DHT22;333;48.800;9.530;2023-07-31T09:50:24;23.00;92.10
2260;DHT22;333;48.800;9.530;2023-07-31T09:52:52;23.30;93.20
2260;DHT22;333;48.800;9.530;2023-07-31T09:55:19;23.70;91.60
2260;DHT22;333;48.800;9.530;2023-07-31T09:57:47;23.80;91.30
2260;DHT22;333;48.800;9.530;2023-07-31T10:00:17;23.90;90.40
2260;DHT22;333;48.800;9.530;2023-07-31T10:02:46;23.90;91.50
2260;DHT22;333;48.800;9.530;2023-07-31T10:05:14;24.00;90.90
2260;DHT22;333;48.800;9.530;2023-07-31T10:07:43;23.90;89.10
2260;DHT22;333;48.800;9.530;2023-07-31T10:10:13;24.00;89.80
2260;DHT22;333;48.800;9.530;2023-07-31T10:12:41;24.00;89.80
2260;DHT22;333;48.800;9.530;2023-07-31T10:15:09;24.30;91.00
2260;DHT22;333;48.800;9.530;2023-07-31T10:17:38;24.60;89.00
2260;DHT22;333;48.800;9.530;2023-07-31T10:20:07;24.50;90.00
2260;DHT22;333;48.800;9.530;2023-07-31T10:22:34;24.40;88.80
2260;DHT22;333;48.800;9.530;2023-07-31T10:25:01;23.90;89.70
2260;DHT22;333;48.800;9.530;2023-07-31T10:27:28;24.00;90.30
2260;DHT22;333;48.800;9.530;2023-07-31T10:29:57;23.90;90.50
2260;DHT22;333;48.800;9.530;2023-07-31T10:32:25;23.80;91.20
2260;DHT22;333;48.800;9.530;2023-07-31T10:34:55;23.60;91.10
2260;DHT22;333;48.800;9.530;2023-07-31T10:37:23;23.60;90.80
2260;DHT22;333;48.800;9.530;2023-07-31T10:39:58;23.70;90.80
2260;DHT22;333;48.800;9.530;2023-07-31T10:42:30;23.90;89.60
2260;DHT22;333;48.800;9.530;2023-07-31T10:44:59;24.00;91.30
2260;DHT22;333;48.800;9.530;2023-07-31T10:47:26;23.90;89.80
2260;DHT22;333;48.800;9.530;2023-07-31T10:50:11;23.90;90.00
2260;DHT22;333;48.800;9.530;2023-07-31T10:52:38;24.30;88.90
2260;DHT22;333;48.800;9.530;2023-07-31T10:55:15;24.00;90.20
2260;DHT22;333;48.800;9.530;2023-07-31T10:57:44;23.70;90.40
2260;DHT22;333;48.800;9.530;2023-07-31T11:00:20;23.40;90.90
2260;DHT22;333;48.800;9.530;2023-07-31T11:03:03;23.50;90.30
2260;DHT22;333;48.800;9.530;2023-07-31T11:05:50;24.00;88.50
2260;DHT22;333;48.800;9.530;2023-07-31T11:08:21;24.10;88.90
2260;DHT22;333;48.800;9.530;2023-07-31T11:10:50;24.00;89.40
2260;DHT22;333;48.800;9.530;2023-07-31T11:13:17;23.90;90.80
2260;DHT22;333;48.800;9.530;2023-07-31T11:15:45;23.70;90.90
2260;DHT22;333;48.800;9.530;2023-07-31T11:18:12;23.50;90.20
2260;DHT22;333;48.800;9.530;2023-07-31T11:20:38;23.80;91.00
2260;DHT22;333;48.800;9.530;2023-07-31T11:23:09;24.30;89.70
2260;DHT22;333;48.800;9.530;2023-07-31T11:25:36;24.50;89.10
2260;DHT22;333;48.800;9.530;2023-07-31T11:28:05;24.60;89.70
2260;DHT22;333;48.800;9.530;2023-07-31T11:30:32;24.60;88.30
2260;DHT22;333;48.800;9.530;2023-07-31T11:33:01;24.60;88.80
2260;DHT22;333;48.800;9.530;2023-07-31T11:35:29;25.10;87.00
2260;DHT22;333;48.800;9.530;2023-07-31T11:37:55;25.40;88.60
2260;DHT22;333;48.800;9.530;2023-07-31T11:40:24;25.70;86.50
2260;DHT22;333;48.800;9.530;2023-07-31T11:42:55;25.40;86.60
2260;DHT22;333;48.800;9.530;2023-07-31T11:45:25;24.80;87.00
2260;DHT22;333;48.800;9.530;2023-07-31T11:47:52;24.70;88.30
2260;DHT22;333;48.800;9.530;2023-07-31T11:50:20;24.60;88.30
2260;DHT22;333;48.800;9.530;2023-07-31T11:52:48;24.40;87.90
2260;DHT22;333;48.800;9.530;2023-07-31T11:55:17;24.20;88.70
2260;DHT22;333;48.800;9.530;2023-07-31T11:57:45;24.20;89.20
2260;DHT22;333;48.800;9.530;2023-07-31T12:00:14;24.30;89.60
2260;DHT22;333;48.800;9.530;2023-07-31T12:02:41;24.30;88.30
2260;DHT22;333;48.800;9.530;2023-07-31T12:05:11;24.30;88.50
2260;DHT22;333;48.800;9.530;2023-07-31T12:07:50;24.20;90.60
2260;DHT22;333;48.800;9.530;2023-07-31T12:10:28;24.10;89.10
2260;DHT22;333;48.800;9.530;2023-07-31T12:12:58;23.80;90.10
2260;DHT22;333;48.800;9.530;2023-07-31T12:15:36;23.90;90.30
2260;DHT22;333;48.800;9.530;2023-07-31T12:18:08;23.90;90.90
2260;DHT22;333;48.800;9.530;2023-07-31T12:20:39;24.10;90.00
2260;DHT22;333;48.800;9.530;2023-07-31T12:23:07;24.10;90.90
2260;DHT22;333;48.800;9.530;2023-07-31T12:25:34;24.30;89.30
2260;DHT22;333;48.800;9.530;2023-07-31T12:28:07;24.50;88.90
2260;DHT22;333;48.800;9.530;2023-07-31T12:30:37;24.40;89.80
2260;DHT22;333;48.800;9.530;2023-07-31T12:33:05;24.30;89.60
2260;DHT22;333;48.800;9.530;2023-07-31T12:35:36;24.30;89.90
2260;DHT22;333;48.800;9.530;2023-07-31T12:38:03;24.40;89.70
2260;DHT22;333;48.800;9.530;2023-07-31T12:40:30;24.60;89.30
2260;DHT22;333;48.800;9.530;2023-07-31T12:42:57;24.40;89.50
2260;DHT22;333;48.800;9.530;2023-07-31T12:45:26;24.20;89.90
2260;DHT22;333;48.800;9.530;2023-07-31T12:47:53;24.00;90.30
2260;DHT22;333;48.800;9.530;2023-07-31T12:50:20;23.90;90.70
2260;DHT22;333;48.800;9.530;2023-07-31T12:52:47;24.10;91.10
2260;DHT22;333;48.800;9.530;2023-07-31T12:55:13;24.10;90.30
2260;DHT22;333;48.800;9.530;2023-07-31T12:57:40;24.00;91.00
2260;DHT22;333;48.800;9.530;2023-07-31T13:00:08;24.00;91.10
2260;DHT22;333;48.800;9.530;2023-07-31T13:02:37;24.10;91.00
2260;DHT22;333;48.800;9.530;2023-07-31T13:05:04;24.10;91.00
2260;DHT22;333;48.800;9.530;2023-07-31T13:07:31;23.90;91.30
2260;DHT22;333;48.800;9.530;2023-07-31T13:09:58;23.80;91.80
2260;DHT22;333;48.800;9.530;2023-07-31T13:12:25;23.90;92.00
2260;DHT22;333;48.800;9.530;2023-07-31T13:14:52;24.10;91.60
2260;DHT22;333;48.800;9.530;2023-07-31T13:17:19;24.00;91.80
2260;DHT22;333;48.800;9.530;2023-07-31T13:19:47;23.90;91.50
2260;DHT22;333;48.800;9.530;2023-07-31T13:22:14;23.80;92.50
2260;DHT22;333;48.800;9.530;2023-07-31T13:24:41;23.70;91.80
2260;DHT22;333;48.800;9.530;2023-07-31T13:27:08;23.40;93.50
2260;DHT22;333;48.800;9.530;2023-07-31T13:29:35;23.40;93.10
2260;DHT22;333;48.800;9.530;2023-07-31T13:32:02;23.50;92.60
2260;DHT22;333;48.800;9.530;2023-07-31T13:34:29;23.30;93.60
2260;DHT22;333;48.800;9.530;2023-07-31T13:36:58;23.30;93.00
2260;DHT22;333;48.800;9.530;2023-07-31T13:39:25;23.20;93.70
2260;DHT22;333;48.800;9.530;2023-07-31T13:41:52;23.20;93.90
2260;DHT22;333;48.800;9.530;2023-07-31T13:44:19;23.30;94.40
2260;DHT22;333;48.800;9.530;2023-07-31T13:46:45;23.30;94.00
2260;DHT22;333;48.800;9.530;2023-07-31T13:49:12;23.20;93.60
2260;DHT22;333;48.800;9.530;2023-07-31T13:51:39;23.30;93.80
2260;DHT22;333;48.800;9.530;2023-07-31T13:54:08;23.30;94.20
2260;DHT22;333;48.800;9.530;2023-07-31T13:56:37;23.50;94.10
2260;DHT22;333;48.800;9.530;2023-07-31T13:59:04;23.40;92.80
2260;DHT22;333;48.800;9.530;2023-07-31T14:01:31;23.40;93.70
2260;DHT22;333;48.800;9.530;2023-07-31T14:03:58;23.30;93.50
2260;DHT22;333;48.800;9.530;2023-07-31T14:06:25;23.50;93.80
2260;DHT22;333;48.800;9.530;2023-07-31T14:08:51;23.50;92.70
2260;DHT22;333;48.800;9.530;2023-07-31T14:11:20;23.60;93.50
2260;DHT22;333;48.800;9.530;2023-07-31T14:13:47;23.80;93.60
2260;DHT22;333;48.800;9.530;2023-07-31T14:16:14;23.90;92.70
2260;DHT22;333;48.800;9.530;2023-07-31T14:18:41;23.90;92.80
2260;DHT22;333;48.800;9.530;2023-07-31T14:21:08;24.00;92.50
2260;DHT22;333;48.800;9.530;2023-07-31T14:23:34;24.20;92.40
2260;DHT22;333;48.800;9.530;2023-07-31T14:26:01;24.30;91.80
2260;DHT22;333;48.800;9.530;2023-07-31T14:28:30;24.30;92.10
2260;DHT22;333;48.800;9.530;2023-07-31T14:30:57;24.50;92.30
2260;DHT22;333;48.800;9.530;2023-07-31T14:33:24;24.70;90.80
2260;DHT22;333;48.800;9.530;2023-07-31T14:35:51;24.70;91.20
2260;DHT22;333;48.800;9.530;2023-07-31T14:38:18;24.80;91.80
2260;DHT22;333;48.800;9.530;2023-07-31T14:40:46;24.80;91.40
2260;DHT22;333;48.800;9.530;2023-07-31T14:43:13;25.00;91.10
2260;DHT22;333;48.800;9.530;2023-07-31T14:45:41;25.20;90.10
2260;DHT22;333;48.800;9.530;2023-07-31T14:48:08;25.20;90.20
2260;DHT22;333;48.800;9.530;2023-07-31T14:50:35;25.20;90.30
2260;DHT22;333;48.800;9.530;2023-07-31T14:53:02;25.20;89.70
2260;DHT22;333;48.800;9.530;2023-07-31T14:55:29;25.30;88.80
2260;DHT22;333;48.800;9.530;2023-07-31T14:57:56;25.50;89.50
2260;DHT22;333;48.800;9.530;2023-07-31T15:00:23;25.60;88.40
2260;DHT22;333;48.800;9.530;2023-07-31T15:02:51;25.60;88.40
2260;DHT22;333;48.800;9.530;2023-07-31T15:05:18;25.50;88.30
2260;DHT22;333;48.800;9.530;2023-07-31T15:07:45;25.50;89.00
2260;DHT22;333;48.800;9.530;2023-07-31T15:10:12;25.70;88.00
2260;DHT22;333;48.800;9.530;2023-07-31T15:12:40;25.90;88.00
2260;DHT22;333;48.800;9.530;2023-07-31T15:15:08;25.60;87.50
2260;DHT22;333;48.800;9.530;2023-07-31T15:17:35;25.40;89.40
2260;DHT22;333;48.800;9.530;2023-07-31T15:20:04;25.20;89.00
2260;DHT22;333;48.800;9.530;2023-07-31T15:22:31;25.10;90.00
2260;DHT22;333;48.800;9.530;2023-07-31T15:24:58;25.20;90.10
2260;DHT22;333;48.800;9.530;2023-07-31T15:27:25;25.50;89.70
2260;DHT22;333;48.800;9.530;2023-07-31T15:29:52;25.80;89.10
2260;DHT22;333;48.800;9.530;2023-07-31T15:32:19;26.00;89.50
2260;DHT22;333;48.800;9.530;2023-07-31T15:34:47;26.20;88.80
2260;DHT22;333;48.800;9.530;2023-07-31T15:37:16;26.10;87.50
2260;DHT22;333;48.800;9.530;2023-07-31T15:39:43;25.90;88.80
2260;DHT22;333;48.800;9.530;2023-07-31T15:42:10;25.60;89.00
2260;DHT22;333;48.800;9.530;2023-07-31T15:44:37;25.40;89.50
2260;DHT22;333;48.800;9.530;2023-07-31T15:47:04;25.40;90.30
2260;DHT22;333;48.800;9.530;2023-07-31T15:49:31;25.70;90.10
2260;DHT22;333;48.800;9.530;2023-07-31T15:51:59;25.80;88.30
2260;DHT22;333;48.800;9.530;2023-07-31T15:54:27;25.70;88.90
2260;DHT22;333;48.800;9.530;2023-07-31T15:56:54;25.30;87.90
2260;DHT22;333;48.800;9.530;2023-07-31T15:59:21;24.90;89.20
2260;DHT22;333;48.800;9.530;2023-07-31T16:01:48;24.90;89.20
2260;DHT22;333;48.800;9.530;2023-07-31T16:04:15;25.10;89.20
2260;DHT22;333;48.800;9.530;2023-07-31T16:06:42;25.60;88.80
2260;DHT22;333;48.800;9.530;2023-07-31T16:09:08;26.10;87.10
2260;DHT22;333;48.800;9.530;2023-07-31T16:11:37;26.60;87.30
2260;DHT22;333;48.800;9.530;2023-07-31T16:14:04;27.00;85.80
2260;DHT22;333;48.800;9.530;2023-07-31T16:16:31;27.00;84.40
2260;DHT22;333;48.800;9.530;2023-07-31T16:18:58;26.50;85.10
2260;DHT22;333;48.800;9.530;2023-07-31T16:21:25;26.50;85.70